createdAt,value
2017-11-24T00:00:40.727Z,956.6
2017-11-24T00:01:50.765Z,956.64
2017-11-24T00:03:00.765Z,956.7
2017-11-24T00:04:10.779Z,956.69
2017-11-24T00:05:20.526Z,956.7
2017-11-24T00:06:30.289Z,956.73
2017-11-24T00:07:40.292Z,956.76
2017-11-24T00:08:50.026Z,956.72
2017-11-24T00:09:59.760Z,956.78
2017-11-24T00:11:09.767Z,956.76
2017-11-24T00:12:19.522Z,956.82
2017-11-24T00:13:31.283Z,956.85
2017-11-24T00:14:41.290Z,956.88
2017-11-24T00:15:51.337Z,956.95
2017-11-24T00:17:01.082Z,956.99
2017-11-24T00:18:10.817Z,956.97
2017-11-24T00:19:20.561Z,956.98
2017-11-24T00:20:30.583Z,956.96
2017-11-24T00:21:40.601Z,956.98
2017-11-24T00:22:50.607Z,957
2017-11-24T00:24:00.363Z,957.04
2017-11-24T00:25:10.372Z,957.11
2017-11-24T00:26:19.843Z,957.13
2017-11-24T00:27:29.850Z,957.09
2017-11-24T00:28:39.854Z,957.08
2017-11-24T00:29:49.892Z,957.07
2017-11-24T00:30:59.903Z,957.02
2017-11-24T00:32:09.930Z,957.07
2017-11-24T00:33:19.945Z,957
2017-11-24T00:34:29.961Z,957.02
2017-11-24T00:35:39.965Z,957.05
2017-11-24T00:36:50.030Z,957.15
2017-11-24T00:37:59.774Z,957.09
2017-11-24T00:39:09.241Z,957.05
2017-11-24T00:40:19.254Z,957.07
2017-11-24T00:41:29.260Z,957.01
2017-11-24T00:42:39.266Z,957.09
2017-11-24T00:43:49.279Z,957.11
2017-11-24T00:44:59.288Z,957.14
2017-11-24T00:46:09.053Z,957.24
2017-11-24T00:47:19.058Z,957.28
2017-11-24T00:48:28.792Z,957.32
2017-11-24T00:49:38.799Z,957.35
2017-11-24T00:50:48.545Z,957.35
2017-11-24T00:51:58.553Z,957.37
2017-11-24T00:53:08.302Z,957.42
2017-11-24T00:54:18.312Z,957.42
2017-11-24T00:55:28.332Z,957.41
2017-11-24T00:56:38.332Z,957.4
2017-11-24T00:57:48.341Z,957.36
2017-11-24T00:58:58.350Z,957.36
2017-11-24T01:00:08.091Z,957.4
2017-11-24T01:01:18.099Z,957.31
2017-11-24T01:02:27.574Z,957.4
2017-11-24T01:03:37.585Z,957.38
2017-11-24T01:04:47.320Z,957.36
2017-11-24T01:05:57.328Z,957.47
2017-11-24T01:07:07.072Z,957.45
2017-11-24T01:08:17.080Z,957.48
2017-11-24T01:09:27.112Z,957.5
2017-11-24T01:10:37.133Z,957.52
2017-11-24T01:11:47.154Z,957.5
2017-11-24T01:12:57.168Z,957.55
2017-11-24T01:14:07.178Z,957.55
2017-11-24T01:15:17.179Z,957.54
2017-11-24T01:16:26.921Z,957.52
2017-11-24T01:17:36.698Z,957.55
2017-11-24T01:18:46.438Z,957.54
2017-11-24T01:19:56.445Z,957.54
2017-11-24T01:21:06.450Z,957.54
2017-11-24T01:22:16.479Z,957.56
2017-11-24T01:23:26.490Z,957.59
2017-11-24T01:24:36.511Z,957.63
2017-11-24T01:25:46.518Z,957.63
2017-11-24T01:26:55.750Z,957.66
2017-11-24T01:28:05.760Z,957.67
2017-11-24T01:29:15.776Z,957.8
2017-11-24T01:30:25.781Z,957.79
2017-11-24T01:31:35.787Z,957.77
2017-11-24T01:32:45.792Z,957.84
2017-11-24T01:33:55.834Z,957.83
2017-11-24T01:35:05.845Z,957.88
2017-11-24T01:36:15.856Z,957.96
2017-11-24T01:37:25.856Z,957.96
2017-11-24T01:38:35.595Z,957.94
2017-11-24T01:39:45.603Z,958.01
2017-11-24T01:40:55.618Z,957.99
2017-11-24T01:42:05.620Z,958.03
2017-11-24T01:43:15.353Z,958.01
2017-11-24T01:44:25.364Z,958.01
2017-11-24T01:45:35.107Z,958.05
2017-11-24T01:46:44.839Z,958.03
2017-11-24T01:47:54.859Z,958.03
2017-11-24T01:49:04.863Z,958.05
2017-11-24T01:50:14.869Z,958.09
2017-11-24T01:51:24.611Z,958.07
2017-11-24T01:52:38.626Z,958.16
2017-11-24T01:53:48.637Z,958.12
2017-11-24T01:54:58.642Z,958.2
2017-11-24T01:56:08.646Z,958.21
2017-11-24T01:57:18.654Z,958.2
2017-11-24T01:58:28.655Z,958.24
2017-11-24T01:59:38.392Z,958.3
2017-11-24T02:00:48.411Z,958.3
2017-11-24T02:01:58.148Z,958.27
2017-11-24T02:03:07.889Z,958.26
2017-11-24T02:04:17.893Z,958.27
2017-11-24T02:05:27.939Z,958.31
2017-11-24T02:06:37.949Z,958.33
2017-11-24T02:07:47.973Z,958.31
2017-11-24T02:08:57.979Z,958.37
2017-11-24T02:10:07.982Z,958.32
2017-11-24T02:11:17.736Z,958.34
2017-11-24T02:12:27.480Z,958.36
2017-11-24T02:13:37.508Z,958.39
2017-11-24T02:14:47.516Z,958.41
2017-11-24T02:15:57.249Z,958.4
2017-11-24T02:17:07.272Z,958.43
2017-11-24T02:18:17.303Z,958.49
2017-11-24T02:19:27.322Z,958.49
2017-11-24T02:20:37.076Z,958.52
2017-11-24T02:21:46.819Z,958.59
2017-11-24T02:22:56.832Z,958.59
2017-11-24T02:24:06.611Z,958.63
2017-11-24T02:25:16.091Z,958.68
2017-11-24T02:26:26.093Z,958.71
2017-11-24T02:27:36.113Z,958.77
2017-11-24T02:28:46.135Z,958.81
2017-11-24T02:29:56.169Z,958.82
2017-11-24T02:31:05.915Z,958.81
2017-11-24T02:32:16.008Z,958.81
2017-11-24T02:33:26.056Z,958.8
2017-11-24T02:34:36.079Z,958.82
2017-11-24T02:35:46.113Z,958.86
2017-11-24T02:36:56.125Z,958.88
2017-11-24T02:38:06.170Z,958.92
2017-11-24T02:39:16.217Z,958.92
2017-11-24T02:40:26.220Z,958.97
2017-11-24T02:41:36.261Z,959.01
2017-11-24T02:42:46.270Z,958.98
2017-11-24T02:43:56.300Z,959.06
2017-11-24T02:45:06.325Z,959.08
2017-11-24T02:46:16.333Z,959.12
2017-11-24T02:47:26.342Z,959.14
2017-11-24T02:48:36.378Z,959.14
2017-11-24T02:49:46.389Z,959.16
2017-11-24T02:50:56.426Z,959.18
2017-11-24T02:52:06.459Z,959.13
2017-11-24T02:53:16.213Z,959.17
2017-11-24T02:54:26.248Z,959.17
2017-11-24T02:55:36.265Z,959.13
2017-11-24T02:56:46.301Z,959.16
2017-11-24T02:57:56.033Z,959.15
2017-11-24T02:59:06.046Z,959.12
2017-11-24T03:00:16.057Z,959.11
2017-11-24T03:01:25.799Z,959.14
2017-11-24T03:02:35.805Z,959.15
2017-11-24T03:03:45.545Z,959.21
2017-11-24T03:04:55.570Z,959.25
2017-11-24T03:06:05.304Z,959.27
2017-11-24T03:07:15.308Z,959.33
2017-11-24T03:08:25.315Z,959.32
2017-11-24T03:09:35.322Z,959.34
2017-11-24T03:10:45.327Z,959.38
2017-11-24T03:11:55.328Z,959.4
2017-11-24T03:13:05.341Z,959.39
2017-11-24T03:14:15.345Z,959.4
2017-11-24T03:15:25.076Z,959.43
2017-11-24T03:16:35.101Z,959.44
2017-11-24T03:17:45.141Z,959.46
2017-11-24T03:18:55.161Z,959.48
2017-11-24T03:20:04.910Z,959.52
2017-11-24T03:21:14.922Z,959.56
2017-11-24T03:22:24.935Z,959.56
2017-11-24T03:23:34.957Z,959.54
2017-11-24T03:24:44.429Z,959.51
2017-11-24T03:25:54.163Z,959.5
2017-11-24T03:27:03.982Z,959.49
2017-11-24T03:28:13.728Z,959.44
2017-11-24T03:29:23.731Z,959.47
2017-11-24T03:30:33.477Z,959.45
2017-11-24T03:31:43.523Z,959.43
2017-11-24T03:32:53.536Z,959.46
2017-11-24T03:34:03.272Z,959.4
2017-11-24T03:35:13.291Z,959.48
2017-11-24T03:36:23.297Z,959.52
2017-11-24T03:37:33.305Z,959.5
2017-11-24T03:38:43.037Z,959.51
2017-11-24T03:39:53.047Z,959.48
2017-11-24T03:41:02.778Z,959.45
2017-11-24T03:42:12.516Z,959.43
2017-11-24T03:43:22.530Z,959.46
2017-11-24T03:44:32.536Z,959.42
2017-11-24T03:45:42.556Z,959.4
2017-11-24T03:46:52.562Z,959.41
2017-11-24T03:48:02.581Z,959.42
2017-11-24T03:49:12.597Z,959.51
2017-11-24T03:50:22.599Z,959.51
2017-11-24T03:51:32.601Z,959.53
2017-11-24T03:52:42.337Z,959.57
2017-11-24T03:53:52.386Z,959.56
2017-11-24T03:55:02.124Z,959.53
2017-11-24T03:56:12.140Z,959.53
2017-11-24T03:57:22.145Z,959.52
2017-11-24T03:58:31.882Z,959.52
2017-11-24T03:59:41.891Z,959.49
2017-11-24T04:03:26.860Z,959.58
2017-11-24T04:04:36.912Z,959.53
2017-11-24T04:05:46.915Z,959.51
2017-11-24T04:06:56.650Z,959.53
2017-11-24T04:08:06.392Z,959.54
2017-11-24T04:09:16.131Z,959.57
2017-11-24T04:10:26.132Z,959.61
2017-11-24T04:11:36.141Z,959.57
2017-11-24T04:12:45.874Z,959.6
2017-11-24T04:13:55.900Z,959.61
2017-11-24T04:15:05.916Z,959.63
2017-11-24T04:16:15.926Z,959.73
2017-11-24T04:17:25.945Z,959.74
2017-11-24T04:18:35.951Z,959.73
2017-11-24T04:19:45.964Z,959.75
2017-11-24T04:20:55.984Z,959.73
2017-11-24T04:22:06.003Z,959.73
2017-11-24T04:23:16.007Z,959.72
2017-11-24T04:24:26.013Z,959.79
2017-11-24T04:25:36.034Z,959.83
2017-11-24T04:26:46.041Z,959.88
2017-11-24T04:27:56.092Z,959.89
2017-11-24T04:29:05.829Z,959.89
2017-11-24T04:30:15.838Z,959.92
2017-11-24T04:31:25.578Z,959.95
2017-11-24T04:32:35.592Z,960
2017-11-24T04:33:45.596Z,960.05
2017-11-24T04:34:55.620Z,960.07
2017-11-24T04:36:05.095Z,960.12
2017-11-24T04:37:15.117Z,960.12
2017-11-24T04:38:25.127Z,960.05
2017-11-24T04:39:34.627Z,960.12
2017-11-24T04:40:44.636Z,960.13
2017-11-24T04:41:54.653Z,960.17
2017-11-24T04:43:04.668Z,960.17
2017-11-24T04:44:14.411Z,960.15
2017-11-24T04:45:24.438Z,960.21
2017-11-24T04:46:34.461Z,960.17
2017-11-24T04:47:44.512Z,960.19
2017-11-24T04:48:54.526Z,960.21
2017-11-24T04:50:04.531Z,960.21
2017-11-24T04:51:14.268Z,960.17
2017-11-24T04:52:24.278Z,960.25
2017-11-24T04:53:34.030Z,960.27
2017-11-24T04:54:44.040Z,960.31
2017-11-24T04:55:53.772Z,960.25
2017-11-24T04:57:03.779Z,960.31
2017-11-24T04:58:13.779Z,960.32
2017-11-24T04:59:23.800Z,960.41
2017-11-24T05:00:33.807Z,960.33
2017-11-24T05:01:43.573Z,960.38
2017-11-24T05:02:53.592Z,960.32
2017-11-24T05:04:03.612Z,960.39
2017-11-24T05:05:13.616Z,960.41
2017-11-24T05:06:23.373Z,960.39
2017-11-24T05:07:33.379Z,960.43
2017-11-24T05:08:43.397Z,960.44
2017-11-24T05:09:53.408Z,960.46
2017-11-24T05:11:03.150Z,960.5
2017-11-24T05:12:13.150Z,960.52
2017-11-24T05:13:22.904Z,960.53
2017-11-24T05:14:32.923Z,960.52
2017-11-24T05:15:42.935Z,960.59
2017-11-24T05:16:52.942Z,960.67
2017-11-24T05:18:02.946Z,960.64
2017-11-24T05:19:12.952Z,960.63
2017-11-24T05:20:22.965Z,960.68
2017-11-24T05:21:32.723Z,960.62
2017-11-24T05:22:42.173Z,960.61
2017-11-24T05:23:52.184Z,960.61
2017-11-24T05:25:02.216Z,960.7
2017-11-24T05:26:11.968Z,960.72
2017-11-24T05:27:21.971Z,960.67
2017-11-24T05:28:31.707Z,960.76
2017-11-24T05:29:41.718Z,960.82
2017-11-24T05:30:51.728Z,960.81
2017-11-24T05:32:01.743Z,960.83
2017-11-24T05:33:11.211Z,960.83
2017-11-24T05:34:21.224Z,960.83
2017-11-24T05:35:31.237Z,960.89
2017-11-24T05:36:40.995Z,960.88
2017-11-24T05:37:51.004Z,960.89
2017-11-24T05:39:00.745Z,960.87
2017-11-24T05:40:10.773Z,960.85
2017-11-24T05:41:20.783Z,960.91
2017-11-24T05:42:30.527Z,960.88
2017-11-24T05:43:40.542Z,960.98
2017-11-24T05:44:50.279Z,961
2017-11-24T05:46:00.282Z,961.06
2017-11-24T05:47:10.299Z,961.06
2017-11-24T05:48:20.043Z,961.12
2017-11-24T05:49:30.057Z,961.15
2017-11-24T05:50:39.812Z,961.18
2017-11-24T05:51:49.844Z,961.15
2017-11-24T05:52:59.858Z,961.2
2017-11-24T05:54:09.864Z,961.18
2017-11-24T05:55:19.878Z,961.24
2017-11-24T05:56:29.884Z,961.24
2017-11-24T05:57:39.912Z,961.21
2017-11-24T05:58:49.926Z,961.2
2017-11-24T05:59:59.929Z,961.2
2017-11-24T06:01:09.668Z,961.18
2017-11-24T06:02:19.694Z,961.22
2017-11-24T06:03:29.699Z,961.27
2017-11-24T06:04:39.878Z,961.32
2017-11-24T06:05:50.020Z,961.32
2017-11-24T06:07:00.640Z,961.31
2017-11-24T06:08:10.579Z,961.35
2017-11-24T06:09:20.605Z,961.38
2017-11-24T06:10:30.888Z,961.36
2017-11-24T06:11:41.523Z,961.36
2017-11-24T06:12:53.091Z,961.39
2017-11-24T06:14:04.736Z,961.41
2017-11-24T06:15:15.454Z,961.46
2017-11-24T06:16:26.710Z,961.45
2017-11-24T06:17:36.869Z,961.44
2017-11-24T06:18:47.023Z,961.51
2017-11-24T06:19:57.011Z,961.46
2017-11-24T06:21:07.271Z,961.52
2017-11-24T06:22:18.029Z,961.53
2017-11-24T06:23:29.911Z,961.55
2017-11-24T06:24:40.550Z,961.57
2017-11-24T06:25:50.556Z,961.57
2017-11-24T06:27:00.559Z,961.58
2017-11-24T06:28:10.299Z,961.58
2017-11-24T06:29:20.812Z,961.6
2017-11-24T06:30:32.162Z,961.61
2017-11-24T06:31:42.897Z,961.65
2017-11-24T06:32:53.453Z,961.68
2017-11-24T06:34:04.317Z,961.76
2017-11-24T06:35:14.677Z,961.78
2017-11-24T06:36:25.113Z,961.78
2017-11-24T06:37:35.659Z,961.81
2017-11-24T06:38:45.428Z,961.79
2017-11-24T06:39:55.289Z,961.85
2017-11-24T06:41:05.683Z,961.89
2017-11-24T06:42:16.188Z,961.88
2017-11-24T06:43:26.614Z,961.92
2017-11-24T06:44:37.922Z,961.93
2017-11-24T06:45:49.310Z,961.88
2017-11-24T06:47:01.632Z,961.83
2017-11-24T06:48:12.669Z,961.84
2017-11-24T06:49:23.373Z,961.87
2017-11-24T06:50:33.363Z,961.93
2017-11-24T06:51:43.769Z,961.9
2017-11-24T06:52:54.406Z,961.88
2017-11-24T06:54:04.713Z,961.91
2017-11-24T06:55:14.925Z,961.95
2017-11-24T06:56:25.512Z,961.95
2017-11-24T06:57:34.979Z,961.96
2017-11-24T06:58:45.006Z,961.94
2017-11-24T06:59:54.762Z,961.92
2017-11-24T07:01:04.952Z,961.95
2017-11-24T07:02:15.925Z,961.92
2017-11-24T07:03:26.606Z,961.93
2017-11-24T07:04:37.029Z,961.94
2017-11-24T07:05:47.453Z,961.92
2017-11-24T07:06:57.550Z,961.91
2017-11-24T07:08:07.210Z,961.92
2017-11-24T07:09:17.427Z,961.89
2017-11-24T07:10:28.075Z,961.87
2017-11-24T07:11:38.557Z,961.82
2017-11-24T07:12:48.590Z,961.87
2017-11-24T07:13:58.710Z,961.87
2017-11-24T07:15:08.662Z,961.93
2017-11-24T07:16:19.298Z,961.91
2017-11-24T07:17:30.597Z,961.94
2017-11-24T07:18:41.330Z,961.96
2017-11-24T07:19:51.949Z,961.92
2017-11-24T07:21:03.075Z,961.93
2017-11-24T07:22:15.066Z,961.92
2017-11-24T07:23:26.015Z,961.97
2017-11-24T07:24:36.742Z,961.95
2017-11-24T07:25:46.766Z,961.96
2017-11-24T07:26:57.062Z,961.98
2017-11-24T07:28:07.157Z,962.02
2017-11-24T07:29:17.520Z,962
2017-11-24T07:30:28.077Z,962.04
2017-11-24T07:31:38.090Z,962.11
2017-11-24T07:32:47.843Z,962.14
2017-11-24T07:33:57.862Z,962.14
2017-11-24T07:35:07.995Z,962.14
2017-11-24T07:36:18.342Z,962.18
2017-11-24T07:37:29.025Z,962.18
2017-11-24T07:38:39.811Z,962.2
2017-11-24T07:39:50.720Z,962.19
2017-11-24T07:41:00.995Z,962.25
2017-11-24T07:42:11.028Z,962.27
2017-11-24T07:43:20.778Z,962.26
2017-11-24T07:44:30.520Z,962.24
2017-11-24T07:45:40.535Z,962.27
2017-11-24T07:46:50.284Z,962.26
2017-11-24T07:47:59.746Z,962.27
2017-11-24T07:49:09.750Z,962.3
2017-11-24T07:50:19.759Z,962.3
2017-11-24T07:51:29.779Z,962.31
2017-11-24T07:52:39.794Z,962.32
2017-11-24T07:53:49.799Z,962.32
2017-11-24T07:54:59.808Z,962.34
2017-11-24T07:56:09.547Z,962.4
2017-11-24T07:57:19.555Z,962.47
2017-11-24T07:58:29.563Z,962.44
2017-11-24T07:59:39.575Z,962.47
2017-11-24T08:00:49.606Z,962.44
2017-11-24T08:01:58.756Z,962.49
2017-11-24T08:03:08.501Z,962.53
2017-11-24T08:04:18.522Z,962.6
2017-11-24T08:05:28.529Z,962.62
2017-11-24T08:06:38.271Z,962.65
2017-11-24T08:07:48.025Z,962.6
2017-11-24T08:09:00.338Z,962.58
2017-11-24T08:10:10.069Z,962.63
2017-11-24T08:11:20.097Z,962.67
2017-11-24T08:12:30.106Z,962.75
2017-11-24T08:13:40.139Z,962.79
2017-11-24T08:14:49.880Z,962.84
2017-11-24T08:15:59.889Z,962.82
2017-11-24T08:17:09.369Z,962.83
2017-11-24T08:18:19.387Z,962.82
2017-11-24T08:19:29.121Z,962.86
2017-11-24T08:20:39.132Z,962.8
2017-11-24T08:21:49.144Z,962.79
2017-11-24T08:22:58.907Z,962.76
2017-11-24T08:24:08.921Z,962.8
2017-11-24T08:25:18.924Z,962.76
2017-11-24T08:26:28.939Z,962.78
2017-11-24T08:27:38.943Z,962.83
2017-11-24T08:28:48.954Z,962.82
2017-11-24T08:29:58.687Z,962.81
2017-11-24T08:31:08.716Z,962.85
2017-11-24T08:32:18.458Z,962.83
2017-11-24T08:33:28.212Z,962.85
2017-11-24T08:34:37.676Z,962.92
2017-11-24T08:35:47.154Z,962.93
2017-11-24T08:36:57.177Z,962.92
2017-11-24T08:38:06.911Z,962.9
2017-11-24T08:39:16.930Z,962.97
2017-11-24T08:40:26.941Z,962.98
2017-11-24T08:41:36.946Z,963.05
2017-11-24T08:42:46.958Z,963.04
2017-11-24T08:43:56.975Z,963.02
2017-11-24T08:45:06.985Z,963.07
2017-11-24T08:46:17.010Z,963.12
2017-11-24T08:47:27.025Z,963.09
2017-11-24T08:48:37.025Z,963.11
2017-11-24T08:49:46.763Z,963.11
2017-11-24T08:50:56.778Z,963.14
2017-11-24T08:52:06.515Z,963.13
2017-11-24T08:53:16.520Z,963.15
2017-11-24T08:54:26.542Z,963.1
2017-11-24T08:55:36.667Z,963.11
2017-11-24T08:56:46.765Z,963.08
2017-11-24T08:57:56.774Z,963.11
2017-11-24T08:59:06.789Z,963.08
2017-11-24T09:00:16.812Z,963.11
2017-11-24T09:01:26.877Z,963.09
2017-11-24T09:02:36.893Z,963.11
2017-11-24T09:03:46.900Z,963.05
2017-11-24T09:04:56.656Z,963.01
2017-11-24T09:06:06.401Z,963
2017-11-24T09:07:16.155Z,962.96
2017-11-24T09:08:26.165Z,962.96
2017-11-24T09:09:36.177Z,963
2017-11-24T09:10:45.923Z,963
2017-11-24T09:11:55.933Z,963.01
2017-11-24T09:13:05.947Z,963.02
2017-11-24T09:14:15.716Z,962.99
2017-11-24T09:15:25.725Z,963
2017-11-24T09:16:35.734Z,963.04
2017-11-24T09:17:45.206Z,963.1
2017-11-24T09:18:55.214Z,963.09
2017-11-24T09:20:04.952Z,963.08
2017-11-24T09:21:14.960Z,963.1
2017-11-24T09:22:24.977Z,963.1
2017-11-24T09:23:35.022Z,963.11
2017-11-24T09:24:45.032Z,963.15
2017-11-24T09:25:55.041Z,963.14
2017-11-24T09:27:04.515Z,963.18
2017-11-24T09:28:14.253Z,963.22
2017-11-24T09:29:24.269Z,963.23
2017-11-24T09:30:34.273Z,963.26
2017-11-24T09:31:44.278Z,963.24
2017-11-24T09:32:53.769Z,963.24
2017-11-24T09:34:03.788Z,963.31
2017-11-24T09:35:13.803Z,963.3
2017-11-24T09:36:23.815Z,963.37
2017-11-24T09:37:33.834Z,963.3
2017-11-24T09:38:43.574Z,963.31
2017-11-24T09:39:53.334Z,963.32
2017-11-24T09:41:03.082Z,963.28
2017-11-24T09:42:13.109Z,963.27
2017-11-24T09:43:22.848Z,963.27
2017-11-24T09:44:32.615Z,963.32
2017-11-24T09:45:42.628Z,963.39
2017-11-24T09:46:52.372Z,963.43
2017-11-24T09:48:03.311Z,963.31
2017-11-24T09:49:13.081Z,963.33
2017-11-24T09:50:22.558Z,963.27
2017-11-24T09:51:32.020Z,963.31
2017-11-24T09:52:42.036Z,963.31
2017-11-24T09:53:52.052Z,963.32
2017-11-24T09:55:01.808Z,963.26
2017-11-24T09:56:11.833Z,963.33
2017-11-24T09:57:21.301Z,963.35
2017-11-24T09:58:30.781Z,963.33
2017-11-24T09:59:40.251Z,963.29
2017-11-24T10:00:50.261Z,963.36
2017-11-24T10:02:00.020Z,963.37
2017-11-24T10:03:10.033Z,963.35
2017-11-24T10:04:19.773Z,963.36
2017-11-24T10:05:29.572Z,963.41
2017-11-24T10:06:39.040Z,963.42
2017-11-24T10:07:48.788Z,963.49
2017-11-24T10:08:58.793Z,963.58
2017-11-24T10:10:08.805Z,963.59
2017-11-24T10:11:18.539Z,963.67
2017-11-24T10:12:28.295Z,963.7
2017-11-24T10:13:38.304Z,963.75
2017-11-24T10:14:48.313Z,963.8
2017-11-24T10:15:57.796Z,963.81
2017-11-24T10:17:11.027Z,963.81
2017-11-24T10:18:21.047Z,963.74
2017-11-24T10:19:31.057Z,963.64
2017-11-24T10:20:40.795Z,963.68
2017-11-24T10:21:50.804Z,963.65
2017-11-24T10:23:00.550Z,963.6
2017-11-24T10:24:10.283Z,963.61
2017-11-24T10:25:20.289Z,963.64
2017-11-24T10:26:30.032Z,963.68
2017-11-24T10:27:40.039Z,963.76
2017-11-24T10:28:50.055Z,963.75
2017-11-24T10:30:00.065Z,963.78
2017-11-24T10:31:10.084Z,963.81
2017-11-24T10:32:20.166Z,963.8
2017-11-24T10:33:30.198Z,963.76
2017-11-24T10:34:40.209Z,963.68
2017-11-24T10:35:50.217Z,963.69
2017-11-24T10:37:00.234Z,963.69
2017-11-24T10:38:10.241Z,963.67
2017-11-24T10:39:20.256Z,963.71
2017-11-24T10:40:29.998Z,963.64
2017-11-24T10:41:40.017Z,963.69
2017-11-24T10:42:50.035Z,963.61
2017-11-24T10:43:59.819Z,963.6
2017-11-24T10:45:09.837Z,963.64
2017-11-24T10:46:19.845Z,963.64
2017-11-24T10:47:29.868Z,963.63
2017-11-24T10:48:39.635Z,963.69
2017-11-24T10:49:49.650Z,963.72
2017-11-24T10:50:59.665Z,963.72
2017-11-24T10:52:09.684Z,963.66
2017-11-24T10:53:19.697Z,963.65
2017-11-24T10:54:29.704Z,963.67
2017-11-24T10:55:39.451Z,963.7
2017-11-24T10:56:48.649Z,963.78
2017-11-24T10:57:57.849Z,963.84
2017-11-24T10:59:07.599Z,963.76
2017-11-24T11:00:17.608Z,963.67
2017-11-24T11:01:27.680Z,963.7
2017-11-24T11:02:37.419Z,963.59
2017-11-24T11:03:47.173Z,963.58
2017-11-24T11:04:56.907Z,963.6
2017-11-24T11:06:06.915Z,963.55
2017-11-24T11:07:16.657Z,963.61
2017-11-24T11:08:26.670Z,963.54
2017-11-24T11:09:36.675Z,963.58
2017-11-24T11:10:46.416Z,963.55
2017-11-24T11:11:56.433Z,963.5
2017-11-24T11:13:06.470Z,963.57
2017-11-24T11:14:16.484Z,963.52
2017-11-24T11:15:26.234Z,963.53
2017-11-24T11:16:36.254Z,963.51
2017-11-24T11:17:45.997Z,963.48
2017-11-24T11:18:56.006Z,963.54
2017-11-24T11:20:05.747Z,963.6
2017-11-24T11:21:15.487Z,963.6
2017-11-24T11:22:25.493Z,963.6
2017-11-24T11:23:35.515Z,963.66
2017-11-24T11:24:45.278Z,963.63
2017-11-24T11:25:54.749Z,963.64
2017-11-24T11:27:04.497Z,963.61
2017-11-24T11:28:14.509Z,963.66
2017-11-24T11:29:24.245Z,963.59
2017-11-24T11:30:34.260Z,963.65
2017-11-24T11:31:44.289Z,963.66
2017-11-24T11:32:54.041Z,963.72
2017-11-24T11:34:04.066Z,963.75
2017-11-24T11:35:13.815Z,963.72
2017-11-24T11:36:23.852Z,963.74
2017-11-24T11:37:33.858Z,963.76
2017-11-24T11:38:43.610Z,963.82
2017-11-24T11:39:53.620Z,963.85
2017-11-24T11:41:03.362Z,963.93
2017-11-24T11:42:13.107Z,963.9
2017-11-24T11:43:23.120Z,963.92
2017-11-24T11:44:32.892Z,963.9
2017-11-24T11:45:42.908Z,963.9
2017-11-24T11:46:52.918Z,963.88
2017-11-24T11:48:02.936Z,963.94
2017-11-24T11:49:12.961Z,963.96
2017-11-24T11:50:23.013Z,963.96
2017-11-24T11:51:32.769Z,963.99
2017-11-24T11:52:42.544Z,963.96
2017-11-24T11:53:52.570Z,964.03
2017-11-24T11:55:02.581Z,964
2017-11-24T11:56:13.103Z,964.04
2017-11-24T11:57:23.185Z,964
2017-11-24T11:58:32.924Z,964
2017-11-24T11:59:42.939Z,963.94
2017-11-24T12:00:52.957Z,963.97
2017-11-24T12:02:02.703Z,963.97
2017-11-24T12:03:12.717Z,964.05
2017-11-24T12:04:22.745Z,964.05
2017-11-24T12:05:32.213Z,964.04
2017-11-24T12:06:42.232Z,964.07
2017-11-24T12:07:52.246Z,964.06
2017-11-24T12:09:02.266Z,964.03
2017-11-24T12:10:12.290Z,964.06
2017-11-24T12:11:22.311Z,964.13
2017-11-24T12:12:32.340Z,964.17
2017-11-24T12:13:42.378Z,964.2
2017-11-24T12:14:52.127Z,964.21
2017-11-24T12:16:02.141Z,964.22
2017-11-24T12:17:12.156Z,964.24
2017-11-24T12:18:22.175Z,964.19
2017-11-24T12:19:32.190Z,964.17
2017-11-24T12:20:41.946Z,964.18
2017-11-24T12:21:51.697Z,964.17
2017-11-24T12:23:01.720Z,964.24
2017-11-24T12:24:11.510Z,964.26
2017-11-24T12:25:21.519Z,964.19
2017-11-24T12:26:31.265Z,964.14
2017-11-24T12:27:41.324Z,964.15
2017-11-24T12:28:51.343Z,964.16
2017-11-24T12:30:01.377Z,964.22
2017-11-24T12:31:13.125Z,964.25
2017-11-24T12:32:23.152Z,964.22
2017-11-24T12:33:33.181Z,964.28
2017-11-24T12:34:43.204Z,964.32
2017-11-24T12:35:53.225Z,964.31
2017-11-24T12:37:02.968Z,964.22
2017-11-24T12:38:12.441Z,964.29
2017-11-24T12:39:22.458Z,964.23
2017-11-24T12:40:32.474Z,964.24
2017-11-24T12:41:42.486Z,964.25
2017-11-24T12:42:52.499Z,964.31
2017-11-24T12:44:02.515Z,964.31
2017-11-24T12:45:12.257Z,964.36
2017-11-24T12:46:21.737Z,964.29
2017-11-24T12:47:31.757Z,964.31
2017-11-24T12:48:41.798Z,964.29
2017-11-24T12:49:51.843Z,964.21
2017-11-24T12:51:01.858Z,964.21
2017-11-24T12:52:11.608Z,964.3
2017-11-24T12:53:21.638Z,964.27
2017-11-24T12:54:31.682Z,964.26
2017-11-24T12:55:41.705Z,964.28
2017-11-24T12:56:51.729Z,964.33
2017-11-24T12:58:01.474Z,964.34
2017-11-24T12:59:10.949Z,964.36
2017-11-24T13:00:20.706Z,964.48
2017-11-24T13:01:30.720Z,964.52
2017-11-24T13:02:40.742Z,964.51
2017-11-24T13:03:50.768Z,964.55
2017-11-24T13:05:00.809Z,964.49
2017-11-24T13:06:10.553Z,964.45
2017-11-24T13:07:20.578Z,964.46
2017-11-24T13:08:30.602Z,964.51
2017-11-24T13:09:40.615Z,964.45
2017-11-24T13:10:50.363Z,964.39
2017-11-24T13:12:00.393Z,964.43
2017-11-24T13:13:10.408Z,964.44
2017-11-24T13:14:20.436Z,964.37
2017-11-24T13:15:30.457Z,964.36
2017-11-24T13:16:40.482Z,964.33
2017-11-24T13:17:50.501Z,964.34
2017-11-24T13:19:00.244Z,964.33
2017-11-24T13:20:09.996Z,964.38
2017-11-24T13:21:20.016Z,964.43
2017-11-24T13:22:29.771Z,964.42
2017-11-24T13:23:39.786Z,964.35
2017-11-24T13:24:49.529Z,964.43
2017-11-24T13:25:59.542Z,964.46
2017-11-24T13:27:09.282Z,964.48
2017-11-24T13:28:19.291Z,964.54
2017-11-24T13:29:29.307Z,964.47
2017-11-24T13:30:39.326Z,964.38
2017-11-24T13:31:49.337Z,964.42
2017-11-24T13:32:59.351Z,964.43
2017-11-24T13:34:09.368Z,964.5
2017-11-24T13:35:19.117Z,964.46
2017-11-24T13:36:28.648Z,964.5
2017-11-24T13:37:38.405Z,964.54
2017-11-24T13:38:48.423Z,964.53
2017-11-24T13:39:58.438Z,964.57
2017-11-24T13:41:08.175Z,964.55
2017-11-24T13:42:17.914Z,964.49
2017-11-24T13:43:27.932Z,964.52
2017-11-24T13:44:37.668Z,964.61
2017-11-24T13:45:47.424Z,964.61
2017-11-24T13:46:57.428Z,964.62
2017-11-24T13:48:07.450Z,964.59
2017-11-24T13:49:17.472Z,964.6
2017-11-24T13:50:27.478Z,964.57
2017-11-24T13:51:37.524Z,964.64
2017-11-24T13:52:46.992Z,964.56
2017-11-24T13:53:56.737Z,964.55
2017-11-24T13:55:06.777Z,964.5
2017-11-24T13:56:16.803Z,964.52
2017-11-24T13:57:26.809Z,964.58
2017-11-24T13:58:36.548Z,964.6
2017-11-24T13:59:46.286Z,964.61
2017-11-24T14:00:56.296Z,964.62
2017-11-24T14:02:06.323Z,964.56
2017-11-24T14:03:16.339Z,964.64
2017-11-24T14:04:26.345Z,964.65
2017-11-24T14:05:36.369Z,964.69
2017-11-24T14:06:46.421Z,964.74
2017-11-24T14:07:56.440Z,964.68
2017-11-24T14:09:05.907Z,964.75
2017-11-24T14:10:15.920Z,964.8
2017-11-24T14:11:25.676Z,964.73
2017-11-24T14:12:35.147Z,964.77
2017-11-24T14:13:45.154Z,964.71
2017-11-24T14:14:55.190Z,964.74
2017-11-24T14:16:05.208Z,964.75
2017-11-24T14:17:15.218Z,964.74
2017-11-24T14:18:24.966Z,964.69
2017-11-24T14:19:34.711Z,964.71
2017-11-24T14:20:44.723Z,964.68
2017-11-24T14:21:54.479Z,964.71
2017-11-24T14:23:04.489Z,964.81
2017-11-24T14:24:13.966Z,964.83
2017-11-24T14:25:23.980Z,964.89
2017-11-24T14:26:33.984Z,964.86
2017-11-24T14:27:43.731Z,964.93
2017-11-24T14:28:53.744Z,964.93
2017-11-24T14:30:03.497Z,964.94
2017-11-24T14:31:13.237Z,964.95
2017-11-24T14:32:23.244Z,964.93
2017-11-24T14:33:33.258Z,964.93
2017-11-24T14:34:43.273Z,964.93
2017-11-24T14:35:53.281Z,964.94
2017-11-24T14:37:03.294Z,965.01
2017-11-24T14:38:13.310Z,965.03
2017-11-24T14:39:23.043Z,965.04